Terminal Aerodrome Forecast
Issued by NWS

Home | Current Version | Previous Version | Text Only | Print | Product List | Glossary On
Versions: 1 2 3 4 5 6 7 8 9 10 11 12 13 14 15 16 17 18 19
972
FTUS46 KMFR 222337
TAFOTH
TAF
KOTH 222337Z 2300/2324 16014G22KT P6SM -SHRA VCTS SCT025CB OVC040
     FM230300 16010KT P6SM -SHRA SCT025 BKN040 BKN100
     FM232000 12007KT P6SM VCSH SCT025 OVC040=

USA.gov is the U.S. government's official web portal to all federal, state and local government web resources and services.